Nearby METAR Reports


 

CYOO - Oshawa Arpt, ON, Canada
Distance from station: NW 3km
Updated: 21/06/2024 08:00
Overcast
Overcast
 Wind from E
Wind: E 6 km/h
Temperature: 22°C
Dew Point: 21°C
Humidity: 94%
Barometer: 1023.4 hPa
Clouds: Overcast
Visibility: 14 km
Cloud details: Overcast 427 m
2024/06/21 12:00 CYOO 211200Z AUTO 08003KT 040V110 9SM OVC014 22/21 A3022 RMK SLP235 DENSITY ALT 1000FT
CXTO - Toronto City, ON, Canada
Distance from station: WSW 49km
Updated: 21/06/2024 08:00

 
Temperature: 22°C
Dew Point: 20°C
Humidity: 88%
2024/06/21 12:00 CXTO 211200Z AUTO 22/20 RMK AO1 SLP235 T02200203 53008
 
CYTZ - Toronto/Bishop Arpt, ON, Canada
Distance from station: SW 52km
Updated: 21/06/2024 08:14
Mist, Overcast
Mist, Overcast
 Wind from ENE
Wind: ENE 19 km/h, Gust: 30 km/h
Temperature: 22°C
Dew Point: 21°C
Humidity: 94%
Barometer: 1023.4 hPa
Summary: Mist
Clouds: Overcast
Visibility: 5 km
Cloud details: Overcast 213 m
2024/06/21 12:14 CYTZ 211214Z AUTO 07010G16KT 3SM BR OVC007 22/21 A3022 RMK SLP234 DENSITY ALT 800FT
CYPQ - Peterborough Muni, ON, Canada
Distance from station: NE 55km
Updated: 21/06/2024 08:00
Overcast
Overcast
 Wind from ENE
Wind: ENE 7 km/h
Temperature: 20°C
Dew Point: 18°C
Humidity: 88%
Barometer: 1024 hPa
Clouds: Overcast
Visibility: 14 km
Cloud details: Few Clouds 762 m
Overcast 945 m
2024/06/21 12:00 CYPQ 211200Z AUTO 06004KT 9SM FEW025 OVC031 20/18 A3024 RMK SLP241 DENSITY ALT 1000FT
 
CYYZ - Toronto/Pearson Intl, ON, Canada
Distance from station: WSW 65km
Updated: 21/06/2024 08:29
Mostly cloudy
Mostly cloudy
 Wind from E
Wind: E 11 km/h
Temperature: 23°C
Dew Point: 22°C
Humidity: 94%
Barometer: 1023.7 hPa
Clouds: Mostly cloudy
Visibility: 24 km
Cloud details: Few Clouds 274 m
Mostly cloudy 640 m
Mostly cloudy 2438 m
2024/06/21 12:29 CYYZ 211229Z 10006KT 15SM FEW009 BKN021 BKN080 23/22 A3023 RMK CF2SC3AC1 SLP236 DENSITY ALT 1300FT
CWGL - Lagoon City, ON, Canada
Distance from station: NNW 78km
Updated: 21/06/2024 08:00

 Wind from ESE
Wind: ESE 9 km/h
Temperature: 21°C
Dew Point: 18°C
Humidity: 83%
2024/06/21 12:00 CWGL 211200Z AUTO 11005KT 21/18 RMK AO1 SLP228 T02100177 53010
 
CWWZ - Port Weller(MAPS), ON, Canada
Distance from station: SSW 78km
Updated: 21/06/2024 08:00

 Wind from W
Wind: W 4 km/h
Temperature: 21°C
Dew Point: 20°C
Humidity: 94%
2024/06/21 12:00 CWWZ 211200Z AUTO 26002KT 21/20 RMK AO1 SLP228 T02140203 53004
CWET - Egbert (MAPS), ON, Canada
Distance from station: WNW 81km
Updated: 21/06/2024 08:56
unable to load CWET data RC=404 Not Found
unable to load CWET data RC=404 Not Found
 
 
CXET - Egbert CS, ON, Canada
Distance from station: WNW 81km
Updated: 21/06/2024 08:00

 Wind from NW
Wind: NW 2 km/h
Temperature: 20°C
Dew Point: 18°C
Humidity: 88%
2024/06/21 12:00 CXET 211200Z AUTO 32001KT 20/18 RMK AO1 SLP242 T02030175 53010
CYSN - St Catharines/Niagara Arpt, ON, Canada
Distance from station: SSW 82km
Updated: 21/06/2024 08:49
Mist, Partly cloudy
Mist, Partly cloudy
 Wind from NW
Wind: NW 6 km/h
Temperature: 23°C
Dew Point: 22°C
Humidity: 94%
Barometer: 1022.7 hPa
Summary: Mist
Clouds: Partly cloudy
Visibility: 8 km
Cloud details: Partly cloudy 91 m
2024/06/21 12:49 CYSN 211249Z 32003KT 5SM BR SCT003 23/22 A3020 RMK SF4 SLP229 DENSITY ALT 1000FT
 
CXBI - Barrie/Lake Simcoe Rgnl, ON, Canada
Distance from station: NW 84km
Updated: 21/06/2024 08:00

 Wind from E
Wind: E 7 km/h
Temperature: 19°C
Dew Point: 19°C
Humidity: 100%
2024/06/21 12:00 CXBI 211200Z AUTO 08004KT 19/19 RMK AO1 SLP251 T01850188 53008
KIAG - Niagara Falls Intl, New York, USA
Distance from station: S 88km
Updated: 21/06/2024 08:53
Clear
Clear
 Wind from varies
Wind: varies 6 km/h
Temperature: 26°C
Dew Point: 21°C
Humidity: 74%
Barometer: 1023 hPa
Clouds: Clear
Visibility: 16 km
2024/06/21 12:53 KIAG 211253Z VRB03KT 10SM CLR 26/21 A3021 RMK AO2 SLP224 T02610206
 
CXVN - Vineland(AUTO), ON, Canada
Distance from station: SSW 90km
Updated: 21/06/2024 08:00

 Wind from N
Wind: N 2 km/h
Temperature: 20°C
Dew Point: 20°C
Humidity: 100%
2024/06/21 12:00 CXVN 211200Z AUTO 35001KT 20/20 RMK AO1 SLP230 T02010200 53006
CWWB - Burlington Pier, ON, Canada
Distance from station: SW 99km
Updated: 21/06/2024 08:00

 Wind from NNE
Wind: NNE 9 km/h
Temperature: 20°C
2024/06/21 12:00 CWWB 211200Z AUTO 03005KT 20/ RMK AO1 SLP236 T0196 53008
 
KBUF - Buffalo-Niagara Intl, New York, USA
Distance from station: S 107km
Updated: 21/06/2024 07:54
Few Clouds
Few Clouds
 Wind from calm
Wind: Calm
Temperature: 25°C
Dew Point: 21°C
Humidity: 79%
Barometer: 1023 hPa
Clouds: Few Clouds
Visibility: 16 km
Cloud details: Few Clouds 5486 m
2024/06/21 11:54 KBUF 211154Z 00000KT 10SM FEW180 25/21 A3021 RMK AO2 SLP226 T02500206 10250 20217 53004
CXHM - Hamilton/Mt Hope, ON, Canada
Distance from station: SW 107km
Updated: 21/06/2024 08:00

 Wind from SE
Wind: SE 2 km/h
Temperature: 23°C
Dew Point: 20°C
Humidity: 83%
2024/06/21 12:00 CXHM 211200Z AUTO 13001KT 23/20 RMK AO1 SLP234 T02290195 53006
This data is offered only as a general guide to local weather conditions. It should not be relied upon in lieu of officially disseminated weather information for determining possible risk to persons or property. This site, including all information contained therein, is made available as is without warranties of any kind, either express or implied. The Vicarage Weather Feed© includes links to other sites for user convenience only. The content of any linked third-party site is not controlled by The Vicarage Weather Feed©. Access to any third-party website through The Vicarage Weather Feed©, regardless of whether or not the third-party site is a linked site, is entirely at the users own risk. Externally sourced content or material is excluded from The Vicarage Weather Feed© copyright and is the copyright and property of the respective provider. Skywarn® and the Skywarn® logo are registered trademarks of the National Oceanic and Atmospheric Administration, used with permission.